Time;durP1;ratioP1;P1;durP2;ratioP2;P2;SDS_P1;SDS_P2;PMS_P1;PMS_P2;Temp;Humidity;BMP_temperature;BMP_pressure;BME280_temperature;BME280_humidity;BME280_pressure;Samples;Min_cycle;Max_cycle;Signal;HPM_P1;HPM_P2
2022/12/08 00:00:05;;;;;;;43.05;10.98;;;;;;;;;;5071754;28;20485;-46
2022/12/08 00:02:37;;;;;;;34.15;9.80;;;;;;;;;;5071918;28;20106;-46
2022/12/08 00:10:35;;;;;;;57.92;12.85;;;;;;;;;;5071381;28;20044;-45
2022/12/08 00:13:18;;;;;;;42.50;10.63;;;;;;;;;;5072028;28;20052;-47
2022/12/08 00:15:44;;;;;;;36.50;10.60;;;;;;;;;;5072751;28;20044;-45
2022/12/08 00:18:11;;;;;;;44.67;10.63;;;;;;;;;;5070867;28;20044;-45
2022/12/08 00:20:37;;;;;;;31.25;9.50;;;;;;;;;;5071266;28;20040;-45
2022/12/08 00:23:04;;;;;;;36.80;9.98;;;;;;;;;;5071673;28;20051;-46
2022/12/08 00:25:33;;;;;;;49.45;11.98;;;;;;;;;;5069657;28;20049;-46
2022/12/08 00:28:00;;;;;;;35.90;9.57;;;;;;;;;;5072515;28;20036;-44
2022/12/08 00:30:26;;;;;;;31.17;9.23;;;;;;;;;;5071196;28;20055;-46
2022/12/08 00:32:53;;;;;;;33.88;9.70;;;;;;;;;;5071423;28;20566;-45
2022/12/08 00:35:19;;;;;;;31.55;10.18;;;;;;;;;;5071182;28;20507;-47
2022/12/08 00:37:46;;;;;;;30.23;9.40;;;;;;;;;;5071311;28;20496;-47
2022/12/08 00:40:13;;;;;;;45.05;11.57;;;;;;;;;;5071019;28;20115;-46
2022/12/08 00:42:39;;;;;;;30.23;10.57;;;;;;;;;;5070258;28;20055;-48
2022/12/08 00:45:06;;;;;;;37.78;10.57;;;;;;;;;;5069650;28;20068;-46
2022/12/08 00:47:32;;;;;;;34.90;9.15;;;;;;;;;;5070969;28;20036;-44
2022/12/08 00:49:59;;;;;;;36.58;8.80;;;;;;;;;;5070991;28;20059;-45
2022/12/08 00:52:25;;;;;;;40.90;8.88;;;;;;;;;;5070920;28;20046;-48
2022/12/08 00:54:52;;;;;;;38.65;8.60;;;;;;;;;;5071424;28;20040;-47
2022/12/08 00:57:20;;;;;;;29.65;7.28;;;;;;;;;;5070760;28;20044;-47
2022/12/08 00:59:46;;;;;;;23.60;6.63;;;;;;;;;;5069412;28;20075;-46
2022/12/08 01:02:13;;;;;;;37.22;7.97;;;;;;;;;;5070704;28;20109;-46
2022/12/08 01:04:40;;;;;;;30.05;7.00;;;;;;;;;;5070937;28;20033;-47
2022/12/08 01:07:07;;;;;;;27.23;6.30;;;;;;;;;;5071814;28;20114;-46
2022/12/08 01:09:33;;;;;;;31.30;6.20;;;;;;;;;;5070754;28;20040;-46
2022/12/08 01:12:00;;;;;;;23.85;6.00;;;;;;;;;;5070032;28;20082;-45
2022/12/08 01:14:27;;;;;;;31.70;5.97;;;;;;;;;;5069277;28;20043;-47
2022/12/08 01:16:53;;;;;;;24.85;6.00;;;;;;;;;;5070475;28;20554;-44
2022/12/08 01:19:20;;;;;;;35.10;6.30;;;;;;;;;;5070544;28;20045;-45
2022/12/08 01:21:46;;;;;;;19.10;5.07;;;;;;;;;;5071676;28;20043;-47
2022/12/08 01:24:14;;;;;;;29.05;5.50;;;;;;;;;;5069769;28;20033;-46
2022/12/08 01:26:41;;;;;;;31.50;5.55;;;;;;;;;;5069897;28;20044;-46
2022/12/08 01:29:08;;;;;;;22.40;5.50;;;;;;;;;;5069299;28;20404;-47
2022/12/08 01:31:35;;;;;;;28.85;5.70;;;;;;;;;;5070172;28;20040;-48
2022/12/08 01:34:01;;;;;;;31.70;6.65;;;;;;;;;;5070937;28;20047;-46
2022/12/08 01:36:29;;;;;;;30.05;6.55;;;;;;;;;;5069823;28;20101;-46
2022/12/08 01:38:56;;;;;;;22.17;5.13;;;;;;;;;;5069925;28;20439;-46
2022/12/08 01:41:25;;;;;;;39.53;6.95;;;;;;;;;;5069597;28;20627;-45
2022/12/08 01:43:59;;;;;;;16.10;4.20;;;;;;;;;;5070672;28;20135;-46
2022/12/08 01:46:27;;;;;;;39.08;6.50;;;;;;;;;;5068248;28;20045;-45
2022/12/08 01:48:59;;;;;;;24.13;4.72;;;;;;;;;;5070804;28;20390;-47
2022/12/08 01:51:25;;;;;;;24.55;4.40;;;;;;;;;;5069941;28;20044;-46
2022/12/08 01:53:52;;;;;;;23.20;4.05;;;;;;;;;;5069376;28;20052;-45
2022/12/08 01:56:30;;;;;;;22.90;5.00;;;;;;;;;;5069224;28;20399;-44
2022/12/08 01:58:57;;;;;;;21.63;4.28;;;;;;;;;;5069056;28;20044;-45
2022/12/08 02:01:23;;;;;;;51.20;7.15;;;;;;;;;;5069704;28;20040;-46
2022/12/08 02:03:53;;;;;;;19.23;3.95;;;;;;;;;;5069414;28;20051;-47
2022/12/08 02:06:20;;;;;;;20.52;4.05;;;;;;;;;;5069142;28;20498;-46
2022/12/08 02:08:46;;;;;;;21.25;4.15;;;;;;;;;;5069207;28;20048;-45
2022/12/08 02:11:13;;;;;;;25.98;4.53;;;;;;;;;;5068443;28;20098;-47
2022/12/08 02:13:41;;;;;;;22.15;3.95;;;;;;;;;;5068048;28;20051;-45
2022/12/08 02:16:10;;;;;;;27.02;4.93;;;;;;;;;;5070416;28;20044;-46
2022/12/08 02:18:55;;;;;;;31.25;4.65;;;;;;;;;;5069714;28;20075;-48
2022/12/08 02:21:51;;;;;;;24.20;4.18;;;;;;;;;;5069029;28;20055;-47
2022/12/08 02:24:24;;;;;;;32.33;4.90;;;;;;;;;;5069051;28;20051;-46
2022/12/08 02:27:04;;;;;;;15.70;2.97;;;;;;;;;;5069247;28;20577;-47
2022/12/08 02:29:39;;;;;;;31.42;5.07;;;;;;;;;;5069115;28;20094;-45
2022/12/08 02:32:19;;;;;;;22.30;4.75;;;;;;;;;;5061172;28;20044;-47
2022/12/08 02:34:52;;;;;;;28.80;5.25;;;;;;;;;;5069239;28;20047;-46
2022/12/08 02:37:28;;;;;;;30.17;5.35;;;;;;;;;;5068955;28;20041;-46
2022/12/08 02:39:54;;;;;;;21.08;3.88;;;;;;;;;;5068861;28;20148;-47
2022/12/08 02:42:26;;;;;;;25.08;4.55;;;;;;;;;;5068647;28;20102;-46
2022/12/08 02:44:53;;;;;;;22.75;4.30;;;;;;;;;;5068504;28;20043;-45
2022/12/08 02:47:21;;;;;;;14.07;3.00;;;;;;;;;;5065201;28;20088;-46
2022/12/08 02:49:47;;;;;;;25.42;4.50;;;;;;;;;;5068959;28;20120;-46
2022/12/08 02:52:14;;;;;;;35.45;5.28;;;;;;;;;;5068904;28;20040;-46
2022/12/08 02:54:43;;;;;;;21.20;3.83;;;;;;;;;;5069506;28;20044;-45
2022/12/08 02:57:19;;;;;;;20.15;4.10;;;;;;;;;;5068272;28;20054;-47
2022/12/08 02:59:54;;;;;;;20.20;4.38;;;;;;;;;;5065483;28;20040;-48
2022/12/08 03:02:39;;;;;;;36.67;5.72;;;;;;;;;;5068593;28;20093;-47
2022/12/08 03:05:18;;;;;;;36.72;5.28;;;;;;;;;;5066079;28;20041;-45
2022/12/08 03:07:52;;;;;;;26.65;4.93;;;;;;;;;;5068312;28;20048;-44
2022/12/08 03:10:37;;;;;;;38.58;6.00;;;;;;;;;;5068583;28;20040;-45
2022/12/08 03:13:15;;;;;;;22.83;4.53;;;;;;;;;;5069427;28;20497;-45
2022/12/08 03:15:42;;;;;;;27.23;5.60;;;;;;;;;;5068941;28;20051;-45
2022/12/08 03:18:11;;;;;;;32.70;5.50;;;;;;;;;;5064745;28;20120;-47
2022/12/08 03:20:39;;;;;;;27.17;5.13;;;;;;;;;;5064491;28;20106;-45
2022/12/08 03:23:08;;;;;;;29.85;5.00;;;;;;;;;;5067765;28;20040;-46
2022/12/08 03:25:37;;;;;;;20.80;3.92;;;;;;;;;;5068390;28;20045;-45
2022/12/08 03:28:04;;;;;;;22.45;4.82;;;;;;;;;;5069536;28;20191;-46
2022/12/08 03:30:35;;;;;;;29.33;5.18;;;;;;;;;;5068495;28;20037;-46
2022/12/08 03:33:28;;;;;;;25.83;5.00;;;;;;;;;;5064809;28;20098;-45
2022/12/08 03:35:56;;;;;;;31.50;6.10;;;;;;;;;;5064256;28;20127;-46
2022/12/08 03:38:22;;;;;;;32.97;5.97;;;;;;;;;;5068238;28;20056;-45
2022/12/08 03:41:17;;;;;;;25.25;5.95;;;;;;;;;;5067985;28;20075;-46
2022/12/08 03:43:36;;;;;;;30.13;5.82;;;;;;;;;;5068064;28;20079;-47
2022/12/08 03:46:02;;;;;;;25.25;5.85;;;;;;;;;;5069507;28;20037;-46
2022/12/08 03:48:29;;;;;;;29.83;6.35;;;;;;;;;;5068151;28;20037;-47
2022/12/08 03:50:56;;;;;;;24.92;5.30;;;;;;;;;;5067981;28;20047;-45
2022/12/08 03:53:22;;;;;;;27.45;6.03;;;;;;;;;;5068321;28;20404;-45
2022/12/08 03:55:48;;;;;;;30.58;7.28;;;;;;;;;;5067852;28;20488;-46
2022/12/08 03:58:15;;;;;;;22.95;5.78;;;;;;;;;;5068531;28;20048;-46
2022/12/08 04:00:42;;;;;;;27.13;6.75;;;;;;;;;;5068713;28;20043;-48
2022/12/08 04:03:08;;;;;;;30.58;6.05;;;;;;;;;;5067730;28;20443;-46
2022/12/08 04:05:35;;;;;;;21.02;4.82;;;;;;;;;;5061255;28;20512;-46
2022/12/08 04:08:01;;;;;;;30.02;6.25;;;;;;;;;;5068139;28;20090;-46
2022/12/08 04:10:28;;;;;;;40.42;7.57;;;;;;;;;;5067594;28;20048;-48
2022/12/08 04:12:55;;;;;;;25.70;6.03;;;;;;;;;;5068844;28;20562;-46
2022/12/08 04:15:22;;;;;;;20.02;5.00;;;;;;;;;;5068020;28;20463;-48
2022/12/08 04:17:48;;;;;;;39.78;7.53;;;;;;;;;;5067480;28;20400;-46
2022/12/08 04:20:14;;;;;;;29.67;6.55;;;;;;;;;;5067929;28;20068;-45
2022/12/08 04:22:41;;;;;;;22.98;5.80;;;;;;;;;;5066119;28;20041;-47
2022/12/08 04:25:08;;;;;;;36.20;7.40;;;;;;;;;;5074656;28;20049;-47
2022/12/08 04:27:34;;;;;;;25.95;6.90;;;;;;;;;;5067687;28;20044;-49
2022/12/08 04:30:01;;;;;;;36.05;8.18;;;;;;;;;;5067518;28;20033;-46
2022/12/08 04:32:28;;;;;;;34.90;8.43;;;;;;;;;;5067491;28;20044;-46
2022/12/08 04:34:54;;;;;;;33.55;7.93;;;;;;;;;;5069601;28;20037;-48
2022/12/08 04:37:21;;;;;;;30.38;7.95;;;;;;;;;;5072189;28;20040;-48
2022/12/08 04:39:47;;;;;;;17.50;6.30;;;;;;;;;;5072375;28;20078;-49
2022/12/08 04:42:14;;;;;;;36.90;8.98;;;;;;;;;;5070772;28;20048;-47
2022/12/08 04:44:40;;;;;;;28.95;7.60;;;;;;;;;;5071355;28;20464;-46
2022/12/08 04:47:07;;;;;;;30.63;8.35;;;;;;;;;;5071744;28;20045;-47
2022/12/08 04:49:33;;;;;;;36.33;10.27;;;;;;;;;;5071224;28;20048;-47
2022/12/08 04:52:00;;;;;;;32.28;9.20;;;;;;;;;;5070862;28;20041;-48
2022/12/08 04:54:27;;;;;;;44.40;10.52;;;;;;;;;;5071255;28;20070;-46
2022/12/08 04:56:53;;;;;;;38.65;10.18;;;;;;;;;;5070735;28;20040;-46
2022/12/08 04:59:20;;;;;;;35.50;10.73;;;;;;;;;;5071614;28;20066;-49
2022/12/08 05:01:46;;;;;;;25.13;8.60;;;;;;;;;;5071155;28;20543;-45
2022/12/08 05:04:13;;;;;;;44.45;11.68;;;;;;;;;;5071276;28;20159;-45
2022/12/08 05:06:39;;;;;;;30.70;10.00;;;;;;;;;;5071370;28;20060;-47
2022/12/08 05:09:06;;;;;;;32.22;9.38;;;;;;;;;;5070691;28;20102;-46
2022/12/08 05:11:33;;;;;;;40.00;11.00;;;;;;;;;;5070485;28;20040;-47
2022/12/08 05:13:59;;;;;;;31.50;10.05;;;;;;;;;;5070880;28;20037;-47
2022/12/08 05:16:26;;;;;;;52.20;12.95;;;;;;;;;;5070841;28;20066;-46
2022/12/08 05:18:52;;;;;;;27.42;9.55;;;;;;;;;;5071877;28;20044;-45
2022/12/08 05:21:19;;;;;;;27.67;9.30;;;;;;;;;;5070569;28;20048;-47
2022/12/08 05:23:45;;;;;;;22.45;8.85;;;;;;;;;;5070562;28;20051;-46
2022/12/08 05:26:12;;;;;;;42.13;10.65;;;;;;;;;;5070361;28;20694;-45
2022/12/08 05:28:38;;;;;;;27.23;9.32;;;;;;;;;;5070906;28;20618;-45
2022/12/08 05:31:08;;;;;;;24.42;9.25;;;;;;;;;;5071405;28;20047;-46
2022/12/08 05:33:35;;;;;;;32.92;10.35;;;;;;;;;;5070233;28;20041;-47
2022/12/08 05:36:01;;;;;;;36.72;9.07;;;;;;;;;;5070372;28;20040;-45
2022/12/08 05:38:28;;;;;;;44.30;10.32;;;;;;;;;;5070147;28;20049;-45
2022/12/08 05:40:54;;;;;;;24.20;8.70;;;;;;;;;;5070155;28;20044;-45
2022/12/08 05:43:21;;;;;;;37.15;9.85;;;;;;;;;;5070627;28;20044;-46
2022/12/08 05:45:48;;;;;;;40.83;10.40;;;;;;;;;;5070192;28;20047;-46
2022/12/08 05:48:15;;;;;;;31.02;10.00;;;;;;;;;;5070284;28;20587;-45
2022/12/08 05:50:45;;;;;;;32.65;9.95;;;;;;;;;;5069789;28;20053;-46
2022/12/08 05:53:12;;;;;;;28.98;10.15;;;;;;;;;;5070553;28;20068;-45
2022/12/08 05:55:39;;;;;;;44.45;11.60;;;;;;;;;;5069151;28;20599;-45
2022/12/08 05:58:05;;;;;;;46.70;11.48;;;;;;;;;;5070860;28;20040;-45
2022/12/08 06:00:33;;;;;;;34.40;11.02;;;;;;;;;;5069970;28;20043;-44
2022/12/08 06:03:00;;;;;;;34.63;11.05;;;;;;;;;;5069865;28;20386;-46
2022/12/08 06:05:27;;;;;;;35.63;11.05;;;;;;;;;;5068748;28;20039;-46
2022/12/08 06:07:53;;;;;;;39.88;11.52;;;;;;;;;;5068666;28;20041;-47
2022/12/08 06:10:20;;;;;;;42.30;11.32;;;;;;;;;;5069791;28;20082;-46
2022/12/08 06:12:46;;;;;;;27.08;11.70;;;;;;;;;;5069831;28;20040;-45
2022/12/08 06:15:13;;;;;;;40.15;12.25;;;;;;;;;;5069233;28;20158;-45
2022/12/08 06:17:39;;;;;;;35.95;12.18;;;;;;;;;;5064273;28;20059;-47
2022/12/08 06:20:06;;;;;;;66.85;13.68;;;;;;;;;;5067969;28;20032;-47
2022/12/08 06:22:33;;;;;;;48.13;13.15;;;;;;;;;;5068635;28;26888;-45
2022/12/08 06:24:59;;;;;;;49.72;14.15;;;;;;;;;;5069030;28;20106;-46
2022/12/08 06:27:29;;;;;;;56.25;13.35;;;;;;;;;;5068395;28;20045;-46
2022/12/08 06:29:56;;;;;;;42.03;12.70;;;;;;;;;;5069009;28;20041;-46
2022/12/08 06:32:23;;;;;;;41.88;13.10;;;;;;;;;;5069087;28;20057;-47
2022/12/08 06:34:53;;;;;;;38.65;11.63;;;;;;;;;;5069780;28;20037;-47
2022/12/08 06:37:19;;;;;;;35.38;11.68;;;;;;;;;;5069677;28;20036;-47
2022/12/08 06:39:46;;;;;;;39.08;11.30;;;;;;;;;;5070011;28;20420;-46
2022/12/08 06:44:58;;;;;;;44.60;12.57;;;;;;;;;;5066659;28;20055;-46
2022/12/08 06:47:24;;;;;;;38.72;10.73;;;;;;;;;;5068949;28;20044;-46
2022/12/08 06:49:52;;;;;;;34.03;10.68;;;;;;;;;;5069015;28;20128;-47
2022/12/08 06:52:18;;;;;;;36.65;10.80;;;;;;;;;;5069215;28;20045;-46
2022/12/08 06:54:45;;;;;;;40.85;10.93;;;;;;;;;;5069545;28;20036;-45
2022/12/08 06:57:11;;;;;;;29.23;9.68;;;;;;;;;;5067020;28;20041;-47
2022/12/08 06:59:38;;;;;;;31.17;10.57;;;;;;;;;;5068628;28;20114;-46
2022/12/08 07:02:05;;;;;;;48.35;10.85;;;;;;;;;;5068611;28;20037;-48
2022/12/08 07:04:31;;;;;;;46.28;11.85;;;;;;;;;;5068874;28;20037;-47
2022/12/08 07:06:58;;;;;;;29.25;9.60;;;;;;;;;;5069620;28;20080;-48
2022/12/08 07:09:24;;;;;;;33.90;9.77;;;;;;;;;;5068397;28;20075;-47
2022/12/08 07:11:51;;;;;;;25.52;8.98;;;;;;;;;;5068154;28;20067;-47
2022/12/08 07:14:19;;;;;;;40.00;10.55;;;;;;;;;;5069006;28;20040;-47
2022/12/08 07:16:45;;;;;;;34.47;9.38;;;;;;;;;;5064409;28;20040;-50
2022/12/08 07:19:12;;;;;;;25.30;7.50;;;;;;;;;;5066982;28;20047;-47
2022/12/08 07:21:39;;;;;;;31.45;9.25;;;;;;;;;;5068615;28;20098;-50
2022/12/08 07:24:05;;;;;;;45.15;12.45;;;;;;;;;;5068154;28;20040;-47
2022/12/08 07:26:32;;;;;;;38.28;10.07;;;;;;;;;;5067314;28;20050;-46
2022/12/08 07:28:58;;;;;;;29.35;9.27;;;;;;;;;;5068702;28;20036;-47
2022/12/08 07:31:25;;;;;;;52.33;11.82;;;;;;;;;;5068468;28;20040;-48
2022/12/08 07:33:52;;;;;;;32.63;9.68;;;;;;;;;;5069330;28;20123;-46
2022/12/08 07:36:19;;;;;;;34.85;10.65;;;;;;;;;;5068267;28;20040;-46
2022/12/08 07:38:45;;;;;;;25.77;8.90;;;;;;;;;;5067043;28;20041;-45
2022/12/08 07:41:17;;;;;;;34.50;9.88;;;;;;;;;;5066028;28;20556;-47
2022/12/08 07:43:44;;;;;;;26.63;8.90;;;;;;;;;;5068105;28;20037;-47
2022/12/08 07:46:14;;;;;;;46.03;10.13;;;;;;;;;;5068718;28;20036;-49
2022/12/08 07:48:41;;;;;;;28.20;8.10;;;;;;;;;;5068318;28;20476;-47
2022/12/08 07:51:09;;;;;;;29.08;8.82;;;;;;;;;;5068066;28;20040;-48
2022/12/08 07:53:38;;;;;;;45.10;9.75;;;;;;;;;;5067615;28;20105;-49
2022/12/08 07:56:08;;;;;;;46.33;9.68;;;;;;;;;;5067092;28;20053;-47
2022/12/08 07:58:35;;;;;;;43.28;9.52;;;;;;;;;;5067970;28;20578;-46
2022/12/08 08:01:02;;;;;;;49.05;10.30;;;;;;;;;;5068895;28;20127;-50
2022/12/08 08:03:28;;;;;;;24.30;7.85;;;;;;;;;;5067695;28;20563;-46
2022/12/08 08:06:01;;;;;;;25.13;7.80;;;;;;;;;;5067626;28;20070;-46
2022/12/08 08:08:27;;;;;;;39.00;9.88;;;;;;;;;;5068034;28;20051;-47
2022/12/08 08:10:54;;;;;;;29.77;9.00;;;;;;;;;;5066876;28;20423;-47
2022/12/08 08:13:20;;;;;;;30.85;10.38;;;;;;;;;;5072162;28;20052;-47
2022/12/08 08:15:47;;;;;;;42.50;10.20;;;;;;;;;;5072337;28;20040;-46
2022/12/08 08:18:13;;;;;;;41.05;10.13;;;;;;;;;;5071212;28;20040;-45
2022/12/08 08:20:40;;;;;;;37.60;10.50;;;;;;;;;;5071578;28;20045;-50
2022/12/08 08:23:06;;;;;;;39.40;10.00;;;;;;;;;;5071603;28;20051;-47
2022/12/08 08:25:33;;;;;;;44.92;10.75;;;;;;;;;;5070980;28;20416;-47
2022/12/08 08:27:59;;;;;;;29.15;8.55;;;;;;;;;;5072346;28;20044;-46
2022/12/08 08:30:26;;;;;;;42.60;9.65;;;;;;;;;;5071334;28;20043;-47
2022/12/08 08:32:53;;;;;;;26.63;8.05;;;;;;;;;;5071278;28;20066;-45
2022/12/08 08:35:19;;;;;;;33.35;9.32;;;;;;;;;;5071283;28;20068;-45
2022/12/08 08:37:46;;;;;;;35.88;10.63;;;;;;;;;;5070902;28;20048;-46
2022/12/08 08:40:15;;;;;;;52.65;11.32;;;;;;;;;;5071696;28;20044;-45
2022/12/08 08:42:42;;;;;;;30.35;10.07;;;;;;;;;;5071687;28;20040;-46
2022/12/08 08:45:09;;;;;;;34.03;10.68;;;;;;;;;;5067040;28;20051;-46
2022/12/08 08:47:36;;;;;;;39.72;10.55;;;;;;;;;;5070922;28;20040;-50
2022/12/08 08:50:03;;;;;;;38.55;11.00;;;;;;;;;;5071368;28;20033;-45
2022/12/08 08:52:30;;;;;;;64.00;13.55;;;;;;;;;;5070863;28;20040;-48
2022/12/08 08:54:56;;;;;;;39.25;11.35;;;;;;;;;;5069076;28;20049;-47
2022/12/08 08:57:23;;;;;;;33.65;10.65;;;;;;;;;;5070885;28;20048;-46
2022/12/08 08:59:52;;;;;;;40.45;11.27;;;;;;;;;;5070837;28;20055;-48
2022/12/08 09:02:18;;;;;;;43.25;11.38;;;;;;;;;;5066664;28;20058;-49
2022/12/08 09:04:45;;;;;;;32.72;10.07;;;;;;;;;;5071337;28;20055;-45
2022/12/08 09:07:12;;;;;;;57.35;13.10;;;;;;;;;;5071137;28;20492;-46
2022/12/08 09:09:39;;;;;;;38.40;11.15;;;;;;;;;;5070589;28;20044;-48
2022/12/08 09:12:06;;;;;;;38.85;11.05;;;;;;;;;;5070002;28;20064;-45
2022/12/08 09:14:32;;;;;;;38.20;8.50;;;;;;;;;;5070735;28;20039;-45
2022/12/08 09:17:00;;;;;;;41.80;10.20;;;;;;;;;;5070589;28;20550;-45
2022/12/08 09:19:27;;;;;;;44.55;10.45;;;;;;;;;;5070533;28;20397;-44
2022/12/08 09:21:53;;;;;;;32.50;10.23;;;;;;;;;;5069792;28;20041;-45
2022/12/08 09:24:22;;;;;;;37.80;9.90;;;;;;;;;;5070551;28;20048;-44
2022/12/08 09:26:48;;;;;;;40.72;10.75;;;;;;;;;;5070410;28;20538;-45
2022/12/08 09:29:16;;;;;;;36.88;9.07;;;;;;;;;;5070735;28;20109;-46
2022/12/08 09:31:43;;;;;;;32.95;8.13;;;;;;;;;;5070628;28;20098;-46
2022/12/08 09:34:10;;;;;;;35.92;8.95;;;;;;;;;;5070936;28;20041;-46
2022/12/08 09:36:38;;;;;;;36.85;12.05;;;;;;;;;;5070167;28;20625;-46
2022/12/08 09:39:05;;;;;;;47.17;11.25;;;;;;;;;;5070540;28;20033;-46
2022/12/08 09:41:36;;;;;;;41.67;11.00;;;;;;;;;;5069956;28;20036;-48
2022/12/08 09:44:20;;;;;;;41.60;11.82;;;;;;;;;;5066812;28;20048;-46
2022/12/08 09:46:48;;;;;;;35.25;11.23;;;;;;;;;;5068860;28;20396;-45
2022/12/08 09:49:19;;;;;;;45.67;11.93;;;;;;;;;;5070451;28;20052;-46
2022/12/08 09:51:47;;;;;;;29.77;10.77;;;;;;;;;;5070698;28;20082;-46
2022/12/08 09:54:22;;;;;;;39.70;10.93;;;;;;;;;;5070356;28;20053;-48
2022/12/08 09:56:51;;;;;;;27.65;9.38;;;;;;;;;;5069535;28;20044;-47
2022/12/08 09:59:29;;;;;;;37.22;11.25;;;;;;;;;;5069862;28;20047;-46
2022/12/08 10:01:56;;;;;;;42.83;11.10;;;;;;;;;;5067421;28;20652;-45
2022/12/08 10:04:25;;;;;;;42.28;10.90;;;;;;;;;;5070201;28;20505;-47
2022/12/08 10:06:57;;;;;;;24.05;9.10;;;;;;;;;;5070005;28;20060;-46
2022/12/08 10:09:40;;;;;;;38.47;10.68;;;;;;;;;;5067133;28;20424;-46
2022/12/08 10:12:09;;;;;;;35.83;11.50;;;;;;;;;;5069048;28;20461;-46
2022/12/08 10:14:44;;;;;;;45.67;13.20;;;;;;;;;;5069480;28;20703;-45
2022/12/08 10:17:24;;;;;;;32.05;11.35;;;;;;;;;;5069768;28;20539;-47
2022/12/08 10:19:59;;;;;;;46.45;13.02;;;;;;;;;;5067786;28;20046;-45
2022/12/08 10:22:28;;;;;;;46.08;11.90;;;;;;;;;;5069579;28;20041;-46
2022/12/08 10:24:57;;;;;;;37.97;11.68;;;;;;;;;;5070280;28;20566;-46
2022/12/08 10:27:25;;;;;;;36.15;12.63;;;;;;;;;;5069442;28;20064;-48
2022/12/08 10:29:52;;;;;;;40.25;13.70;;;;;;;;;;5065607;28;20095;-45
2022/12/08 10:32:20;;;;;;;45.42;13.88;;;;;;;;;;5069535;28;20120;-45
2022/12/08 10:35:05;;;;;;;29.05;12.85;;;;;;;;;;5063189;28;20043;-45
2022/12/08 10:37:31;;;;;;;63.88;17.77;;;;;;;;;;5067247;28;20091;-46
2022/12/08 10:40:05;;;;;;;44.65;15.27;;;;;;;;;;5070204;28;20124;-45
2022/12/08 10:42:34;;;;;;;49.08;17.52;;;;;;;;;;5069103;28;20472;-44
2022/12/08 10:45:16;;;;;;;55.17;17.02;;;;;;;;;;5068262;28;20032;-45
2022/12/08 10:47:47;;;;;;;42.33;14.33;;;;;;;;;;5065779;28;20127;-45
2022/12/08 10:50:22;;;;;;;54.58;16.10;;;;;;;;;;5064823;28;20289;-50
2022/12/08 10:53:21;;;;;;;50.72;17.30;;;;;;;;;;5066022;28;20055;-47
2022/12/08 10:55:50;;;;;;;74.85;24.50;;;;;;;;;;5025728;28;20034;-45
2022/12/08 10:58:23;;;;;;;54.45;19.38;;;;;;;;;;5027261;28;20067;-47
2022/12/08 11:00:52;;;;;;;64.22;23.52;;;;;;;;;;5026530;28;20140;-48
2022/12/08 11:03:29;;;;;;;45.80;18.95;;;;;;;;;;5025116;28;20509;-48
2022/12/08 11:05:57;;;;;;;46.70;17.20;;;;;;;;;;5009339;28;20051;-47
2022/12/08 11:08:24;;;;;;;45.15;16.38;;;;;;;;;;5025645;28;20518;-47
2022/12/08 11:10:51;;;;;;;46.55;15.95;;;;;;;;;;5025370;28;20046;-45
2022/12/08 11:13:22;;;;;;;51.03;16.83;;;;;;;;;;5026966;28;20049;-44
2022/12/08 11:15:49;;;;;;;41.92;15.07;;;;;;;;;;5026747;28;20484;-48
2022/12/08 11:18:25;;;;;;;36.58;13.63;;;;;;;;;;5024605;28;20053;-47
2022/12/08 11:21:06;;;;;;;44.00;14.70;;;;;;;;;;5025070;28;20505;-46
2022/12/08 11:23:34;;;;;;;47.65;15.45;;;;;;;;;;5024093;28;20124;-45
2022/12/08 11:26:14;;;;;;;58.83;17.02;;;;;;;;;;5024835;28;20057;-45
2022/12/08 11:28:41;;;;;;;41.45;14.32;;;;;;;;;;5024450;28;20041;-46
2022/12/08 11:31:16;;;;;;;52.17;16.77;;;;;;;;;;5037783;28;20048;-49
2022/12/08 11:33:43;;;;;;;42.85;15.30;;;;;;;;;;5067929;28;20044;-48
2022/12/08 11:36:11;;;;;;;50.83;15.93;;;;;;;;;;5067573;28;20040;-45
2022/12/08 11:38:43;;;;;;;54.53;17.27;;;;;;;;;;5067780;28;20045;-46
2022/12/08 11:41:21;;;;;;;49.33;14.73;;;;;;;;;;5067588;28;20151;-46
2022/12/08 11:43:53;;;;;;;47.03;16.58;;;;;;;;;;5067295;28;20048;-44
2022/12/08 11:46:22;;;;;;;39.13;16.38;;;;;;;;;;5067507;28;20767;-45
2022/12/08 11:48:52;;;;;;;41.55;16.92;;;;;;;;;;5068346;28;20048;-48
2022/12/08 11:51:26;;;;;;;52.47;18.58;;;;;;;;;;5067631;28;20587;-46
2022/12/08 11:54:05;;;;;;;51.35;16.60;;;;;;;;;;5067629;28;20037;-46
2022/12/08 11:56:33;;;;;;;50.85;16.23;;;;;;;;;;5064027;28;20389;-46
2022/12/08 11:59:01;;;;;;;48.45;16.05;;;;;;;;;;5067800;28;20040;-46
2022/12/08 12:01:28;;;;;;;55.97;16.65;;;;;;;;;;5067307;28;20090;-45
2022/12/08 12:03:58;;;;;;;46.28;15.23;;;;;;;;;;5068827;28;20045;-47
2022/12/08 12:06:43;;;;;;;46.70;15.20;;;;;;;;;;5067504;28;20106;-49
2022/12/08 12:09:35;;;;;;;31.45;14.00;;;;;;;;;;5079975;28;20096;-49
2022/12/08 12:12:21;;;;;;;47.08;14.68;;;;;;;;;;5066987;28;20564;-47
2022/12/08 12:15:06;;;;;;;44.67;15.48;;;;;;;;;;5065666;28;20044;-47
2022/12/08 12:17:39;;;;;;;61.78;18.17;;;;;;;;;;5065001;28;20036;-50
2022/12/08 12:20:12;;;;;;;52.33;17.67;;;;;;;;;;5067091;28;20384;-47
2022/12/08 12:22:40;;;;;;;54.53;19.38;;;;;;;;;;5065554;28;20257;-47
2022/12/08 12:25:15;;;;;;;46.97;18.38;;;;;;;;;;5068346;28;20044;-47
2022/12/08 12:27:42;;;;;;;41.63;16.63;;;;;;;;;;5067453;28;20044;-47
2022/12/08 12:30:23;;;;;;;69.53;21.08;;;;;;;;;;5066790;28;20040;-46
2022/12/08 12:32:52;;;;;;;42.35;18.45;;;;;;;;;;5065526;28;20165;-49
2022/12/08 12:35:39;;;;;;;54.95;20.83;;;;;;;;;;5067254;28;20051;-46
2022/12/08 12:38:59;;;;;;;68.95;21.48;;;;;;;;;;5065650;28;20029;-47
2022/12/08 12:40:59;;;;;;;54.08;22.98;;;;;;;;;;5067109;28;20069;-46
2022/12/08 12:43:28;;;;;;;68.43;24.45;;;;;;;;;;5067836;28;20048;-45
2022/12/08 12:46:18;;;;;;;61.05;22.80;;;;;;;;;;5068220;28;20037;-45
2022/12/08 12:48:44;;;;;;;51.53;22.60;;;;;;;;;;5059595;28;20155;-45
2022/12/08 12:51:30;;;;;;;52.35;22.33;;;;;;;;;;5067550;28;20531;-48
2022/12/08 12:54:16;;;;;;;46.72;21.08;;;;;;;;;;5067851;28;20600;-45
2022/12/08 12:56:47;;;;;;;46.40;21.52;;;;;;;;;;5069455;28;20072;-46
2022/12/08 12:59:29;;;;;;;50.55;21.70;;;;;;;;;;5070955;28;20112;-45
2022/12/08 13:01:56;;;;;;;51.67;20.67;;;;;;;;;;5069912;28;20041;-47
2022/12/08 13:04:28;;;;;;;64.40;23.90;;;;;;;;;;5071564;28;20632;-46
2022/12/08 13:06:54;;;;;;;59.70;25.23;;;;;;;;;;5071296;28;20055;-47
2022/12/08 13:09:23;;;;;;;60.17;24.67;;;;;;;;;;5071019;28;20044;-47
2022/12/08 13:11:51;;;;;;;52.78;21.75;;;;;;;;;;5070337;28;20033;-48
2022/12/08 13:14:25;;;;;;;60.15;21.83;;;;;;;;;;5070485;28;20058;-45
2022/12/08 13:16:54;;;;;;;52.13;19.75;;;;;;;;;;5067030;28;20040;-45
2022/12/08 13:19:21;;;;;;;46.05;20.38;;;;;;;;;;5071417;28;20706;-47
2022/12/08 13:21:47;;;;;;;59.63;22.30;;;;;;;;;;5071041;28;20052;-46
2022/12/08 13:24:23;;;;;;;59.05;23.20;;;;;;;;;;5069173;28;20106;-45
2022/12/08 13:27:12;;;;;;;59.70;22.92;;;;;;;;;;5070212;28;20040;-46
2022/12/08 13:29:39;;;;;;;52.25;21.42;;;;;;;;;;5070393;28;20033;-48
2022/12/08 13:32:08;;;;;;;59.35;22.00;;;;;;;;;;5062734;28;20115;-46
2022/12/08 13:34:41;;;;;;;63.78;22.92;;;;;;;;;;5070744;28;20519;-46
2022/12/08 13:37:16;;;;;;;59.37;22.13;;;;;;;;;;5070523;28;20563;-46
2022/12/08 13:39:48;;;;;;;54.75;21.50;;;;;;;;;;5069703;28;20045;-46
2022/12/08 13:42:18;;;;;;;55.08;21.70;;;;;;;;;;5069675;28;20052;-46
2022/12/08 13:44:46;;;;;;;75.50;23.67;;;;;;;;;;5070157;28;20041;-45
2022/12/08 13:47:36;;;;;;;63.95;23.15;;;;;;;;;;5068197;28;20414;-47
2022/12/08 13:50:32;;;;;;;51.20;21.10;;;;;;;;;;5067366;28;20503;-47
2022/12/08 13:53:25;;;;;;;56.13;22.42;;;;;;;;;;5068460;28;20040;-48
2022/12/08 13:56:12;;;;;;;52.63;20.55;;;;;;;;;;5068532;28;20041;-49
2022/12/08 13:59:06;;;;;;;53.38;21.02;;;;;;;;;;5069626;28;20041;-45
2022/12/08 14:01:37;;;;;;;63.17;22.17;;;;;;;;;;5070009;28;20056;-46
2022/12/08 14:04:04;;;;;;;61.88;23.13;;;;;;;;;;5070912;28;20044;-45
2022/12/08 14:06:55;;;;;;;61.35;22.67;;;;;;;;;;5069028;28;20087;-47
2022/12/08 14:09:25;;;;;;;47.47;21.85;;;;;;;;;;5070031;28;20045;-47
2022/12/08 14:11:57;;;;;;;53.95;22.33;;;;;;;;;;5069208;28;20493;-49
2022/12/08 14:14:27;;;;;;;57.67;23.13;;;;;;;;;;5068418;28;20062;-48
2022/12/08 14:17:17;;;;;;;61.55;23.33;;;;;;;;;;5069653;28;20047;-46
2022/12/08 14:19:55;;;;;;;65.20;25.30;;;;;;;;;;5068619;28;20067;-47
2022/12/08 14:22:21;;;;;;;54.20;21.55;;;;;;;;;;5070435;28;20592;-46
2022/12/08 14:24:50;;;;;;;60.20;23.75;;;;;;;;;;5069748;28;20044;-47
2022/12/08 14:27:21;;;;;;;60.35;23.85;;;;;;;;;;5064871;28;20052;-47
2022/12/08 14:29:52;;;;;;;54.30;23.42;;;;;;;;;;5069044;28;20044;-46
2022/12/08 14:32:19;;;;;;;58.22;24.05;;;;;;;;;;5069159;28;20556;-47
2022/12/08 14:35:05;;;;;;;56.25;24.58;;;;;;;;;;5069673;28;20045;-45
2022/12/08 14:37:36;;;;;;;71.18;25.27;;;;;;;;;;5069316;28;20404;-47
2022/12/08 14:40:05;;;;;;;89.25;27.75;;;;;;;;;;5069040;28;20045;-46
2022/12/08 14:42:41;;;;;;;58.20;25.33;;;;;;;;;;5067398;28;20040;-49
2022/12/08 14:45:09;;;;;;;67.40;25.52;;;;;;;;;;5069437;28;20036;-48
2022/12/08 14:47:36;;;;;;;62.90;24.63;;;;;;;;;;5069043;28;20392;-45